sensor_id;sensor_type;location;lat;lon;timestamp;pressure;altitude;pressure_sealevel;temperature;humidity
50852;BME280;43953;45.508;-122.806;2024-01-30T00:00:24;100500.75;;;24.34;41.83
50852;BME280;43953;45.508;-122.806;2024-01-30T00:00:57;100533.41;;;24.55;42.19
50852;BME280;43953;45.508;-122.806;2024-01-30T00:01:29;100538.09;;;24.54;42.19
50852;BME280;43953;45.508;-122.806;2024-01-30T00:02:00;100523.53;;;24.54;42.07
50852;BME280;43953;45.508;-122.806;2024-01-30T00:02:32;100530.66;;;24.55;42.09
50852;BME280;43953;45.508;-122.806;2024-01-30T00:03:04;100526.28;;;24.54;42.26
50852;BME280;43953;45.508;-122.806;2024-01-30T00:03:36;100527.91;;;24.55;42.27
50852;BME280;43953;45.508;-122.806;2024-01-30T00:04:07;100525.13;;;24.55;42.15
50852;BME280;43953;45.508;-122.806;2024-01-30T00:04:39;100526.78;;;24.56;42.26
50852;BME280;43953;45.508;-122.806;2024-01-30T00:05:11;100526.78;;;24.56;42.11
50852;BME280;43953;45.508;-122.806;2024-01-30T00:05:43;100526.78;;;24.56;41.99
50852;BME280;43953;45.508;-122.806;2024-01-30T00:06:14;100528.72;;;24.55;42.22
50852;BME280;43953;45.508;-122.806;2024-01-30T00:06:50;100531.47;;;24.55;41.98
50852;BME280;43953;45.508;-122.806;2024-01-30T00:07:24;100529.53;;;24.56;42.07
50852;BME280;43953;45.508;-122.806;2024-01-30T00:07:55;100535.03;;;24.56;42.09
50852;BME280;43953;45.508;-122.806;2024-01-30T00:08:27;100529.53;;;24.56;42.22
50852;BME280;43953;45.508;-122.806;2024-01-30T00:08:59;100524.34;;;24.54;42.11
50852;BME280;43953;45.508;-122.806;2024-01-30T00:09:31;100533.41;;;24.55;42.26
50852;BME280;43953;45.508;-122.806;2024-01-30T00:10:02;100532.28;;;24.56;42.07
50852;BME280;43953;45.508;-122.806;2024-01-30T00:10:34;100530.66;;;24.55;42.09
50852;BME280;43953;45.508;-122.806;2024-01-30T00:11:07;100524.34;;;24.54;41.91
50852;BME280;43953;45.508;-122.806;2024-01-30T00:11:39;100526.28;;;24.54;42.13
50852;BME280;43953;45.508;-122.806;2024-01-30T00:12:11;100529.03;;;24.54;42.07
50852;BME280;43953;45.508;-122.806;2024-01-30T00:12:43;100528.22;;;24.53;42.07
50852;BME280;43953;45.508;-122.806;2024-01-30T00:13:15;100513.31;;;24.40;42.00
50852;BME280;43953;45.508;-122.806;2024-01-30T00:13:48;100535.66;;;24.52;42.08
50852;BME280;43953;45.508;-122.806;2024-01-30T00:14:20;100527.41;;;24.52;42.23
50852;BME280;43953;45.508;-122.806;2024-01-30T00:14:52;100533.72;;;24.53;42.01
50852;BME280;43953;45.508;-122.806;2024-01-30T00:15:24;100539.22;;;24.53;42.06
50852;BME280;43953;45.508;-122.806;2024-01-30T00:15:55;100543.91;;;24.52;42.20
50852;BME280;43953;45.508;-122.806;2024-01-30T00:16:27;100547.78;;;24.51;42.14
50852;BME280;43953;45.508;-122.806;2024-01-30T00:16:59;100551.34;;;24.52;42.10
50852;BME280;43953;45.508;-122.806;2024-01-30T00:17:31;100549.72;;;24.51;42.17
50852;BME280;43953;45.508;-122.806;2024-01-30T00:18:03;100543.41;;;24.50;42.16
50852;BME280;43953;45.508;-122.806;2024-01-30T00:18:35;100506.19;;;24.25;41.91
50852;BME280;43953;45.508;-122.806;2024-01-30T00:19:07;100533.19;;;24.51;42.16
50852;BME280;43953;45.508;-122.806;2024-01-30T00:19:39;100536.75;;;24.51;42.00
50852;BME280;43953;45.508;-122.806;2024-01-30T00:20:11;100535.16;;;24.50;42.14
50852;BME280;43953;45.508;-122.806;2024-01-30T00:20:43;100542.28;;;24.51;42.03
50852;BME280;43953;45.508;-122.806;2024-01-30T00:21:15;100534.63;;;24.48;41.97
50852;BME280;43953;45.508;-122.806;2024-01-30T00:21:46;100540.66;;;24.50;42.01
50852;BME280;43953;45.508;-122.806;2024-01-30T00:22:18;100535.16;;;24.50;41.86
50852;BME280;43953;45.508;-122.806;2024-01-30T00:22:50;100535.16;;;24.50;42.13
50852;BME280;43953;45.508;-122.806;2024-01-30T00:23:21;100528.81;;;24.50;42.10
50852;BME280;43953;45.508;-122.806;2024-01-30T00:23:53;100496.59;;;24.23;42.00
50852;BME280;43953;45.508;-122.806;2024-01-30T00:24:25;100531.59;;;24.50;41.93
50852;BME280;43953;45.508;-122.806;2024-01-30T00:24:57;100506.25;;;24.34;42.02
50852;BME280;43953;45.508;-122.806;2024-01-30T00:25:28;100530.44;;;24.51;42.09
50852;BME280;43953;45.508;-122.806;2024-01-30T00:26:00;100529.63;;;24.50;42.10
50852;BME280;43953;45.508;-122.806;2024-01-30T00:26:32;100531.88;;;24.48;41.58
50852;BME280;43953;45.508;-122.806;2024-01-30T00:27:04;100528.03;;;24.49;41.94
50852;BME280;43953;45.508;-122.806;2024-01-30T00:27:35;100522.50;;;24.49;41.81
50852;BME280;43953;45.508;-122.806;2024-01-30T00:28:07;100523.31;;;24.50;41.87
50852;BME280;43953;45.508;-122.806;2024-01-30T00:28:39;100518.13;;;24.48;41.75
50852;BME280;43953;45.508;-122.806;2024-01-30T00:29:11;100522.00;;;24.47;41.76
50852;BME280;43953;45.508;-122.806;2024-01-30T00:29:43;100525.28;;;24.49;41.70
50852;BME280;43953;45.508;-122.806;2024-01-30T00:30:15;100525.56;;;24.48;42.01
50852;BME280;43953;45.508;-122.806;2024-01-30T00:30:46;100514.56;;;24.48;41.93
50852;BME280;43953;45.508;-122.806;2024-01-30T00:31:18;100511.81;;;24.48;41.80
50852;BME280;43953;45.508;-122.806;2024-01-30T00:31:50;100512.94;;;24.47;41.89
50852;BME280;43953;45.508;-122.806;2024-01-30T00:32:21;100506.63;;;24.46;42.06
50852;BME280;43953;45.508;-122.806;2024-01-30T00:32:54;100509.38;;;24.46;41.87
50852;BME280;43953;45.508;-122.806;2024-01-30T00:33:26;100513.75;;;24.47;41.92
50852;BME280;43953;45.508;-122.806;2024-01-30T00:33:58;100510.47;;;24.45;42.02
50852;BME280;43953;45.508;-122.806;2024-01-30T00:34:29;100517.09;;;24.44;42.07
50852;BME280;43953;45.508;-122.806;2024-01-30T00:35:01;100516.31;;;24.44;42.05
50852;BME280;43953;45.508;-122.806;2024-01-30T00:35:33;100518.25;;;24.43;41.90
50852;BME280;43953;45.508;-122.806;2024-01-30T00:36:05;100513.00;;;24.42;41.84
50852;BME280;43953;45.508;-122.806;2024-01-30T00:36:40;100517.41;;;24.43;42.03
50852;BME280;43953;45.508;-122.806;2024-01-30T00:37:12;100511.91;;;24.43;41.85
50852;BME280;43953;45.508;-122.806;2024-01-30T00:37:43;100518.25;;;24.43;41.88
50852;BME280;43953;45.508;-122.806;2024-01-30T00:38:15;100520.16;;;24.43;41.81
50852;BME280;43953;45.508;-122.806;2024-01-30T00:38:47;100527.59;;;24.42;41.86
50852;BME280;43953;45.508;-122.806;2024-01-30T00:39:19;100523.75;;;24.43;41.96
50852;BME280;43953;45.508;-122.806;2024-01-30T00:39:50;100524.84;;;24.42;42.06
50852;BME280;43953;45.508;-122.806;2024-01-30T00:40:22;100525.66;;;24.43;41.96
50852;BME280;43953;45.508;-122.806;2024-01-30T00:40:54;100524.56;;;24.44;41.91
50852;BME280;43953;45.508;-122.806;2024-01-30T00:41:25;100520.16;;;24.43;41.79
50852;BME280;43953;45.508;-122.806;2024-01-30T00:41:58;100530.06;;;24.44;42.01
50852;BME280;43953;45.508;-122.806;2024-01-30T00:42:29;100523.75;;;24.43;41.79
50852;BME280;43953;45.508;-122.806;2024-01-30T00:43:01;100523.75;;;24.43;41.76
50852;BME280;43953;45.508;-122.806;2024-01-30T00:43:33;100517.41;;;24.43;41.86
50852;BME280;43953;45.508;-122.806;2024-01-30T00:44:05;100525.94;;;24.41;41.82
50852;BME280;43953;45.508;-122.806;2024-01-30T00:44:36;100522.09;;;24.42;41.86
50852;BME280;43953;45.508;-122.806;2024-01-30T00:45:15;100524.00;;;24.42;41.78
50852;BME280;43953;45.508;-122.806;2024-01-30T00:45:47;100524.84;;;24.42;41.82
50852;BME280;43953;45.508;-122.806;2024-01-30T00:46:19;100525.94;;;24.41;42.05
50852;BME280;43953;45.508;-122.806;2024-01-30T00:46:50;100528.69;;;24.41;41.87
50852;BME280;43953;45.508;-122.806;2024-01-30T00:47:22;100533.41;;;24.41;41.84
50852;BME280;43953;45.508;-122.806;2024-01-30T00:47:54;100534.81;;;24.38;41.95
50852;BME280;43953;45.508;-122.806;2024-01-30T00:48:25;100527.19;;;24.35;41.97
50852;BME280;43953;45.508;-122.806;2024-01-30T00:48:57;100526.38;;;24.35;42.08
50852;BME280;43953;45.508;-122.806;2024-01-30T00:49:29;100531.88;;;24.35;42.20
50852;BME280;43953;45.508;-122.806;2024-01-30T00:50:01;100531.34;;;24.33;42.14
50852;BME280;43953;45.508;-122.806;2024-01-30T00:50:32;100487.63;;;24.03;42.17
50852;BME280;43953;45.508;-122.806;2024-01-30T00:51:04;100534.91;;;24.33;42.19
50852;BME280;43953;45.508;-122.806;2024-01-30T00:51:36;100527.19;;;24.35;42.24
50852;BME280;43953;45.508;-122.806;2024-01-30T00:52:08;100528.78;;;24.36;42.11
50852;BME280;43953;45.508;-122.806;2024-01-30T00:52:40;100532.06;;;24.38;42.20
50852;BME280;43953;45.508;-122.806;2024-01-30T00:53:13;100529.59;;;24.37;42.07
50852;BME280;43953;45.508;-122.806;2024-01-30T00:53:45;100534.50;;;24.40;42.07
50852;BME280;43953;45.508;-122.806;2024-01-30T00:54:17;100539.72;;;24.41;42.14
50852;BME280;43953;45.508;-122.806;2024-01-30T00:54:49;100532.25;;;24.42;42.01
50852;BME280;43953;45.508;-122.806;2024-01-30T00:55:21;100522.09;;;24.42;42.04
50852;BME280;43953;45.508;-122.806;2024-01-30T00:55:52;100524.56;;;24.44;41.96
50852;BME280;43953;45.508;-122.806;2024-01-30T00:56:24;100525.38;;;24.44;41.96
50852;BME280;43953;45.508;-122.806;2024-01-30T00:56:56;100523.13;;;24.46;42.02
50852;BME280;43953;45.508;-122.806;2024-01-30T00:57:28;100522.00;;;24.47;42.05
50852;BME280;43953;45.508;-122.806;2024-01-30T00:58:00;100525.28;;;24.49;41.87
50852;BME280;43953;45.508;-122.806;2024-01-30T00:58:32;100524.94;;;24.51;42.02
50852;BME280;43953;45.508;-122.806;2024-01-30T00:59:03;100523.00;;;24.51;41.86
50852;BME280;43953;45.508;-122.806;2024-01-30T00:59:35;100524.13;;;24.50;41.78
50852;BME280;43953;45.508;-122.806;2024-01-30T01:00:07;100524.66;;;24.52;41.64
50852;BME280;43953;45.508;-122.806;2024-01-30T01:00:40;100534.34;;;24.50;42.04
50852;BME280;43953;45.508;-122.806;2024-01-30T01:01:12;100523.94;;;24.47;42.09
50852;BME280;43953;45.508;-122.806;2024-01-30T01:01:44;100532.19;;;24.47;42.13
50852;BME280;43953;45.508;-122.806;2024-01-30T01:02:15;100526.97;;;24.45;42.56
50852;BME280;43953;45.508;-122.806;2024-01-30T01:02:48;100527.59;;;24.42;42.36
50852;BME280;43953;45.508;-122.806;2024-01-30T01:03:20;100534.19;;;24.41;42.25
50852;BME280;43953;45.508;-122.806;2024-01-30T01:03:52;100530.34;;;24.42;42.19
50852;BME280;43953;45.508;-122.806;2024-01-30T01:04:24;100521.25;;;24.42;42.40
50852;BME280;43953;45.508;-122.806;2024-01-30T01:04:56;100524.91;;;24.37;42.81
50852;BME280;43953;45.508;-122.806;2024-01-30T01:05:27;100528.28;;;24.34;42.74
50852;BME280;43953;45.508;-122.806;2024-01-30T01:05:59;100528.28;;;24.34;42.63
50852;BME280;43953;45.508;-122.806;2024-01-30T01:06:31;100525.84;;;24.33;42.66
50852;BME280;43953;45.508;-122.806;2024-01-30T01:07:03;100528.28;;;24.34;42.68
50852;BME280;43953;45.508;-122.806;2024-01-30T01:07:34;100525.53;;;24.34;42.57
50852;BME280;43953;45.508;-122.806;2024-01-30T01:08:06;100489.47;;;24.08;42.54
50852;BME280;43953;45.508;-122.806;2024-01-30T01:08:38;100533.69;;;24.39;42.39
50852;BME280;43953;45.508;-122.806;2024-01-30T01:09:13;100531.75;;;24.40;42.31
50852;BME280;43953;45.508;-122.806;2024-01-30T01:09:44;100539.81;;;24.36;42.79
50852;BME280;43953;45.508;-122.806;2024-01-30T01:10:17;100550.59;;;24.33;42.90
50852;BME280;43953;45.508;-122.806;2024-01-30T01:10:49;100541.53;;;24.32;43.00
50852;BME280;43953;45.508;-122.806;2024-01-30T01:11:21;100545.09;;;24.33;42.77
50852;BME280;43953;45.508;-122.806;2024-01-30T01:11:53;100556.91;;;24.33;42.75
50852;BME280;43953;45.508;-122.806;2024-01-30T01:12:24;100556.72;;;24.29;42.87
50852;BME280;43953;45.508;-122.806;2024-01-30T01:12:56;100552.03;;;24.30;42.90
50852;BME280;43953;45.508;-122.806;2024-01-30T01:13:28;100561.09;;;24.30;43.04
50852;BME280;43953;45.508;-122.806;2024-01-30T01:14:00;100557.00;;;24.28;43.13
50852;BME280;43953;45.508;-122.806;2024-01-30T01:14:31;100556.72;;;24.29;43.16
50852;BME280;43953;45.508;-122.806;2024-01-30T01:15:03;100560.00;;;24.32;42.89
50852;BME280;43953;45.508;-122.806;2024-01-30T01:15:36;100559.66;;;24.33;43.05
50852;BME280;43953;45.508;-122.806;2024-01-30T01:16:08;100557.72;;;24.34;42.78
50852;BME280;43953;45.508;-122.806;2024-01-30T01:16:40;100558.25;;;24.36;42.77
50852;BME280;43953;45.508;-122.806;2024-01-30T01:17:12;100554.69;;;24.35;43.06
50852;BME280;43953;45.508;-122.806;2024-01-30T01:17:44;100559.59;;;24.38;42.81
50852;BME280;43953;45.508;-122.806;2024-01-30T01:18:15;100555.69;;;24.39;42.82
50852;BME280;43953;45.508;-122.806;2024-01-30T01:18:47;100563.94;;;24.39;42.89
50852;BME280;43953;45.508;-122.806;2024-01-30T01:19:19;100564.47;;;24.41;42.96
50852;BME280;43953;45.508;-122.806;2024-01-30T01:19:51;100569.97;;;24.41;42.70
50852;BME280;43953;45.508;-122.806;2024-01-30T01:20:22;100571.63;;;24.42;42.70
50852;BME280;43953;45.508;-122.806;2024-01-30T01:20:54;100571.34;;;24.44;42.67
50852;BME280;43953;45.508;-122.806;2024-01-30T01:21:26;100574.91;;;24.44;42.80
50852;BME280;43953;45.508;-122.806;2024-01-30T01:21:57;100578.78;;;24.43;43.37
50852;BME280;43953;45.508;-122.806;2024-01-30T01:22:29;100576.03;;;24.43;42.97
50852;BME280;43953;45.508;-122.806;2024-01-30T01:23:01;100568.59;;;24.44;42.78
50852;BME280;43953;45.508;-122.806;2024-01-30T01:23:33;100570.19;;;24.45;43.07
50852;BME280;43953;45.508;-122.806;2024-01-30T01:24:05;100567.78;;;24.43;43.44
50852;BME280;43953;45.508;-122.806;2024-01-30T01:24:36;100568.88;;;24.42;43.09
50852;BME280;43953;45.508;-122.806;2024-01-30T01:25:09;100573.88;;;24.40;43.17
50852;BME280;43953;45.508;-122.806;2024-01-30T01:25:41;100572.22;;;24.39;43.20
50852;BME280;43953;45.508;-122.806;2024-01-30T01:26:13;100573.88;;;24.40;43.08
50852;BME280;43953;45.508;-122.806;2024-01-30T01:26:45;100577.72;;;24.39;43.06
50852;BME280;43953;45.508;-122.806;2024-01-30T01:27:17;100580.78;;;24.38;42.91
50852;BME280;43953;45.508;-122.806;2024-01-30T01:27:48;100584.03;;;24.40;42.80
50852;BME280;43953;45.508;-122.806;2024-01-30T01:28:23;100588.72;;;24.39;42.94
50852;BME280;43953;45.508;-122.806;2024-01-30T01:28:54;100589.25;;;24.41;42.97
50852;BME280;43953;45.508;-122.806;2024-01-30T01:29:26;100590.88;;;24.42;42.92
50852;BME280;43953;45.508;-122.806;2024-01-30T01:30:00;100592.00;;;24.41;43.21
50852;BME280;43953;45.508;-122.806;2024-01-30T01:30:32;100592.00;;;24.41;43.12
50852;BME280;43953;45.508;-122.806;2024-01-30T01:31:04;100592.28;;;24.40;43.06
50852;BME280;43953;45.508;-122.806;2024-01-30T01:31:37;100595.88;;;24.40;42.97
50852;BME280;43953;45.508;-122.806;2024-01-30T01:32:14;100595.03;;;24.40;43.27
50852;BME280;43953;45.508;-122.806;2024-01-30T01:32:46;100595.34;;;24.38;43.02
50852;BME280;43953;45.508;-122.806;2024-01-30T01:33:22;100599.19;;;24.37;43.07
50852;BME280;43953;45.508;-122.806;2024-01-30T01:33:53;100609.13;;;24.38;43.21
50852;BME280;43953;45.508;-122.806;2024-01-30T01:34:25;100603.59;;;24.38;43.09
50852;BME280;43953;45.508;-122.806;2024-01-30T01:34:57;100617.03;;;24.40;43.01
50852;BME280;43953;45.508;-122.806;2024-01-30T01:35:29;100608.50;;;24.41;43.11
50852;BME280;43953;45.508;-122.806;2024-01-30T01:36:00;100613.72;;;24.43;42.94
50852;BME280;43953;45.508;-122.806;2024-01-30T01:36:34;100612.91;;;24.42;42.95
50852;BME280;43953;45.508;-122.806;2024-01-30T01:37:06;100615.66;;;24.42;42.87
50852;BME280;43953;45.508;-122.806;2024-01-30T01:37:38;100622.81;;;24.43;42.70
50852;BME280;43953;45.508;-122.806;2024-01-30T01:38:10;100615.66;;;24.42;42.94
50852;BME280;43953;45.508;-122.806;2024-01-30T01:38:42;100616.47;;;24.43;43.01
50852;BME280;43953;45.508;-122.806;2024-01-30T01:39:14;100624.72;;;24.43;42.65
50852;BME280;43953;45.508;-122.806;2024-01-30T01:39:46;100620.06;;;24.43;42.66
50852;BME280;43953;45.508;-122.806;2024-01-30T01:40:17;100621.97;;;24.43;42.74
50852;BME280;43953;45.508;-122.806;2024-01-30T01:40:49;100626.66;;;24.42;42.99
50852;BME280;43953;45.508;-122.806;2024-01-30T01:41:22;100633.28;;;24.41;42.87
50852;BME280;43953;45.508;-122.806;2024-01-30T01:41:54;100634.91;;;24.42;42.85
50852;BME280;43953;45.508;-122.806;2024-01-30T01:42:25;100638.78;;;24.41;42.97
50852;BME280;43953;45.508;-122.806;2024-01-30T01:42:57;100642.88;;;24.44;42.94
50852;BME280;43953;45.508;-122.806;2024-01-30T01:43:29;100647.25;;;24.45;42.85
50852;BME280;43953;45.508;-122.806;2024-01-30T01:44:01;100646.44;;;24.44;43.22
50852;BME280;43953;45.508;-122.806;2024-01-30T01:44:32;100645.31;;;24.45;42.87
50852;BME280;43953;45.508;-122.806;2024-01-30T01:45:04;100645.03;;;24.47;43.11
50852;BME280;43953;45.508;-122.806;2024-01-30T01:45:36;100640.34;;;24.47;43.00
50852;BME280;43953;45.508;-122.806;2024-01-30T01:46:08;100647.78;;;24.47;43.00
50852;BME280;43953;45.508;-122.806;2024-01-30T01:46:40;100648.59;;;24.47;43.47
50852;BME280;43953;45.508;-122.806;2024-01-30T01:47:12;100649.19;;;24.44;43.58
50852;BME280;43953;45.508;-122.806;2024-01-30T01:47:47;100648.69;;;24.42;43.53
50852;BME280;43953;45.508;-122.806;2024-01-30T01:48:19;100653.09;;;24.43;43.50
50852;BME280;43953;45.508;-122.806;2024-01-30T01:48:51;100651.16;;;24.44;43.42
50852;BME280;43953;45.508;-122.806;2024-01-30T01:49:25;100631.53;;;24.32;43.31
50852;BME280;43953;45.508;-122.806;2024-01-30T01:49:58;100653.09;;;24.43;43.07
50852;BME280;43953;45.508;-122.806;2024-01-30T01:50:31;100657.47;;;24.44;42.96
50852;BME280;43953;45.508;-122.806;2024-01-30T01:51:03;100656.34;;;24.45;42.78
50852;BME280;43953;45.508;-122.806;2024-01-30T01:51:36;100657.97;;;24.46;42.75
50852;BME280;43953;45.508;-122.806;2024-01-30T01:52:08;100662.34;;;24.47;42.52
50852;BME280;43953;45.508;-122.806;2024-01-30T01:52:41;100662.34;;;24.47;42.90
50852;BME280;43953;45.508;-122.806;2024-01-30T01:53:13;100663.38;;;24.51;42.86
50852;BME280;43953;45.508;-122.806;2024-01-30T01:53:46;100666.66;;;24.54;42.88
50852;BME280;43953;45.508;-122.806;2024-01-30T01:54:18;100668.25;;;24.55;42.87
50852;BME280;43953;45.508;-122.806;2024-01-30T01:54:50;100662.75;;;24.55;42.67
50852;BME280;43953;45.508;-122.806;2024-01-30T01:55:22;100668.25;;;24.55;42.72
50852;BME280;43953;45.508;-122.806;2024-01-30T01:55:56;100675.44;;;24.56;42.67
50852;BME280;43953;45.508;-122.806;2024-01-30T01:56:29;100679.28;;;24.55;42.88
50852;BME280;43953;45.508;-122.806;2024-01-30T01:57:02;100674.91;;;24.54;43.15
50852;BME280;43953;45.508;-122.806;2024-01-30T01:57:34;100682.34;;;24.53;43.63
50852;BME280;43953;45.508;-122.806;2024-01-30T01:58:06;100683.75;;;24.50;43.78
50852;BME280;43953;45.508;-122.806;2024-01-30T01:58:40;100657.59;;;24.34;43.80
50852;BME280;43953;45.508;-122.806;2024-01-30T01:59:13;100681.53;;;24.52;44.01
50852;BME280;43953;45.508;-122.806;2024-01-30T01:59:44;100683.97;;;24.54;43.69
50852;BME280;43953;45.508;-122.806;2024-01-30T02:00:17;100681.75;;;24.56;43.90
50852;BME280;43953;45.508;-122.806;2024-01-30T02:00:50;100675.91;;;24.58;43.83
50852;BME280;43953;45.508;-122.806;2024-01-30T02:01:23;100675.63;;;24.59;43.79
50852;BME280;43953;45.508;-122.806;2024-01-30T02:01:57;100669.31;;;24.59;43.66
50852;BME280;43953;45.508;-122.806;2024-01-30T02:02:30;100669.31;;;24.59;43.62
50852;BME280;43953;45.508;-122.806;2024-01-30T02:03:07;100669.31;;;24.59;43.75
50852;BME280;43953;45.508;-122.806;2024-01-30T02:03:40;100670.72;;;24.56;44.71
50852;BME280;43953;45.508;-122.806;2024-01-30T02:04:12;100680.94;;;24.56;44.86
50852;BME280;43953;45.508;-122.806;2024-01-30T02:04:44;100683.16;;;24.54;44.87
50852;BME280;43953;45.508;-122.806;2024-01-30T02:05:16;100675.50;;;24.50;44.97
50852;BME280;43953;45.508;-122.806;2024-01-30T02:05:48;100683.75;;;24.50;44.98
50852;BME280;43953;45.508;-122.806;2024-01-30T02:06:20;100684.28;;;24.52;44.95
50852;BME280;43953;45.508;-122.806;2024-01-30T02:06:52;100687.84;;;24.53;45.35
50852;BME280;43953;45.508;-122.806;2024-01-30T02:07:24;100690.28;;;24.55;45.16
50852;BME280;43953;45.508;-122.806;2024-01-30T02:07:56;100687.84;;;24.53;45.28
50852;BME280;43953;45.508;-122.806;2024-01-30T02:08:28;100689.47;;;24.54;45.06
50852;BME280;43953;45.508;-122.806;2024-01-30T02:09:00;100670.91;;;24.46;44.97
50852;BME280;43953;45.508;-122.806;2024-01-30T02:09:32;100690.81;;;24.57;44.96
50852;BME280;43953;45.508;-122.806;2024-01-30T02:10:04;100687.53;;;24.55;45.25
50852;BME280;43953;45.508;-122.806;2024-01-30T02:10:36;100682.03;;;24.55;45.22
50852;BME280;43953;45.508;-122.806;2024-01-30T02:11:08;100688.38;;;24.55;45.42
50852;BME280;43953;45.508;-122.806;2024-01-30T02:11:41;100683.69;;;24.56;45.64
50852;BME280;43953;45.508;-122.806;2024-01-30T02:12:13;100680.31;;;24.59;45.49
50852;BME280;43953;45.508;-122.806;2024-01-30T02:12:45;100677.25;;;24.60;45.76
50852;BME280;43953;45.508;-122.806;2024-01-30T02:13:17;100678.06;;;24.61;45.71
50852;BME280;43953;45.508;-122.806;2024-01-30T02:13:49;100685.22;;;24.62;45.88
50852;BME280;43953;45.508;-122.806;2024-01-30T02:14:21;100674.22;;;24.62;45.76
50852;BME280;43953;45.508;-122.806;2024-01-30T02:14:53;100682.16;;;24.63;45.96
50852;BME280;43953;45.508;-122.806;2024-01-30T02:15:26;100678.28;;;24.64;46.02
50852;BME280;43953;45.508;-122.806;2024-01-30T02:15:58;100685.72;;;24.64;45.94
50852;BME280;43953;45.508;-122.806;2024-01-30T02:16:30;100679.91;;;24.65;46.12
50852;BME280;43953;45.508;-122.806;2024-01-30T02:17:01;100692.88;;;24.65;46.10
50852;BME280;43953;45.508;-122.806;2024-01-30T02:17:33;100688.97;;;24.66;46.11
50852;BME280;43953;45.508;-122.806;2024-01-30T02:18:05;100692.53;;;24.66;45.75
50852;BME280;43953;45.508;-122.806;2024-01-30T02:18:37;100684.00;;;24.68;45.81
50852;BME280;43953;45.508;-122.806;2024-01-30T02:19:13;100689.78;;;24.66;46.22
50852;BME280;43953;45.508;-122.806;2024-01-30T02:19:44;100682.16;;;24.63;46.19
50852;BME280;43953;45.508;-122.806;2024-01-30T02:20:16;100679.72;;;24.62;46.43
50852;BME280;43953;45.508;-122.806;2024-01-30T02:20:48;100676.97;;;24.62;46.26
50852;BME280;43953;45.508;-122.806;2024-01-30T02:21:20;100674.69;;;24.64;46.33
50852;BME280;43953;45.508;-122.806;2024-01-30T02:21:52;100682.38;;;24.67;46.26
50852;BME280;43953;45.508;-122.806;2024-01-30T02:22:24;100668.28;;;24.68;46.47
50852;BME280;43953;45.508;-122.806;2024-01-30T02:22:58;100678.16;;;24.69;46.45
50852;BME280;43953;45.508;-122.806;2024-01-30T02:23:33;100679.00;;;24.70;46.52
50852;BME280;43953;45.508;-122.806;2024-01-30T02:24:05;100677.06;;;24.70;46.41
50852;BME280;43953;45.508;-122.806;2024-01-30T02:24:37;100684.53;;;24.70;46.23
50852;BME280;43953;45.508;-122.806;2024-01-30T02:25:09;100679.31;;;24.68;46.60
50852;BME280;43953;45.508;-122.806;2024-01-30T02:25:42;100682.38;;;24.67;46.31
50852;BME280;43953;45.508;-122.806;2024-01-30T02:26:15;100688.97;;;24.66;46.55
50852;BME280;43953;45.508;-122.806;2024-01-30T02:26:47;100691.44;;;24.67;46.55
50852;BME280;43953;45.508;-122.806;2024-01-30T02:27:19;100695.81;;;24.68;46.73
50852;BME280;43953;45.508;-122.806;2024-01-30T02:27:50;100685.63;;;24.69;46.71
50852;BME280;43953;45.508;-122.806;2024-01-30T02:28:22;100688.09;;;24.70;46.59
50852;BME280;43953;45.508;-122.806;2024-01-30T02:28:54;100694.09;;;24.72;46.42
50852;BME280;43953;45.508;-122.806;2024-01-30T02:29:26;100691.31;;;24.72;46.45
50852;BME280;43953;45.508;-122.806;2024-01-30T02:29:57;100691.84;;;24.74;46.63
50852;BME280;43953;45.508;-122.806;2024-01-30T02:30:29;100689.91;;;24.75;46.73
50852;BME280;43953;45.508;-122.806;2024-01-30T02:31:01;100695.13;;;24.77;46.67
50852;BME280;43953;45.508;-122.806;2024-01-30T02:31:32;100695.94;;;24.77;46.90
50852;BME280;43953;45.508;-122.806;2024-01-30T02:32:04;100694.81;;;24.78;46.90
50852;BME280;43953;45.508;-122.806;2024-01-30T02:32:37;100696.75;;;24.78;47.06
50852;BME280;43953;45.508;-122.806;2024-01-30T02:33:09;100700.63;;;24.77;47.30
50852;BME280;43953;45.508;-122.806;2024-01-30T02:33:40;100696.22;;;24.75;47.43
50852;BME280;43953;45.508;-122.806;2024-01-30T02:34:12;100697.06;;;24.76;47.25
50852;BME280;43953;45.508;-122.806;2024-01-30T02:34:44;100703.38;;;24.77;47.16
50852;BME280;43953;45.508;-122.806;2024-01-30T02:35:15;100708.06;;;24.76;46.79
50852;BME280;43953;45.508;-122.806;2024-01-30T02:35:47;100709.19;;;24.75;47.33
50852;BME280;43953;45.508;-122.806;2024-01-30T02:36:19;100708.06;;;24.76;47.52
50852;BME280;43953;45.508;-122.806;2024-01-30T02:36:51;100706.94;;;24.77;47.35
50852;BME280;43953;45.508;-122.806;2024-01-30T02:37:23;100705.81;;;24.78;47.26
50852;BME280;43953;45.508;-122.806;2024-01-30T02:37:54;100704.59;;;24.70;47.26
50852;BME280;43953;45.508;-122.806;2024-01-30T02:38:26;100707.47;;;24.79;47.63
50852;BME280;43953;45.508;-122.806;2024-01-30T02:38:58;100706.84;;;24.82;47.98
50852;BME280;43953;45.508;-122.806;2024-01-30T02:39:30;100704.09;;;24.82;47.95
50852;BME280;43953;45.508;-122.806;2024-01-30T02:40:02;100706.03;;;24.82;47.89
50852;BME280;43953;45.508;-122.806;2024-01-30T02:40:33;100709.63;;;24.82;47.98
50852;BME280;43953;45.508;-122.806;2024-01-30T02:41:05;100704.09;;;24.82;48.50
50852;BME280;43953;45.508;-122.806;2024-01-30T02:41:37;100701.84;;;24.84;48.79